sensor_id;sensor_type;location;lat;lon;timestamp;temperature;humidity
1806;DHT22;901;48.142;11.516;2023-09-08T00:01:01;16.40;99.90
1806;DHT22;901;48.142;11.516;2023-09-08T00:03:28;16.30;99.90
1806;DHT22;901;48.142;11.516;2023-09-08T00:05:55;16.30;99.90
1806;DHT22;901;48.142;11.516;2023-09-08T00:08:22;16.20;99.90
1806;DHT22;901;48.142;11.516;2023-09-08T00:10:49;16.10;99.90
1806;DHT22;901;48.142;11.516;2023-09-08T00:13:17;16.10;99.90
1806;DHT22;901;48.142;11.516;2023-09-08T00:15:44;16.00;99.90
1806;DHT22;901;48.142;11.516;2023-09-08T00:18:11;16.00;99.90
1806;DHT22;901;48.142;11.516;2023-09-08T00:20:38;16.00;99.90
1806;DHT22;901;48.142;11.516;2023-09-08T00:23:07;15.90;99.90
1806;DHT22;901;48.142;11.516;2023-09-08T00:25:34;15.90;99.90
1806;DHT22;901;48.142;11.516;2023-09-08T00:28:01;15.80;99.90
1806;DHT22;901;48.142;11.516;2023-09-08T00:30:30;15.80;99.90
1806;DHT22;901;48.142;11.516;2023-09-08T00:32:57;15.70;99.90
1806;DHT22;901;48.142;11.516;2023-09-08T00:35:24;15.70;99.90
1806;DHT22;901;48.142;11.516;2023-09-08T00:37:50;15.60;99.90
1806;DHT22;901;48.142;11.516;2023-09-08T00:40:17;15.60;99.90
1806;DHT22;901;48.142;11.516;2023-09-08T00:42:44;15.60;99.90
1806;DHT22;901;48.142;11.516;2023-09-08T00:45:12;15.60;99.90
1806;DHT22;901;48.142;11.516;2023-09-08T00:47:40;15.60;99.90
1806;DHT22;901;48.142;11.516;2023-09-08T00:50:08;15.60;99.90
1806;DHT22;901;48.142;11.516;2023-09-08T00:52:36;15.60;99.90
1806;DHT22;901;48.142;11.516;2023-09-08T00:55:03;15.60;99.90
1806;DHT22;901;48.142;11.516;2023-09-08T00:57:31;15.60;99.90
1806;DHT22;901;48.142;11.516;2023-09-08T00:59:58;15.60;99.90
1806;DHT22;901;48.142;11.516;2023-09-08T01:02:25;15.60;99.90
1806;DHT22;901;48.142;11.516;2023-09-08T01:04:54;15.60;99.90
1806;DHT22;901;48.142;11.516;2023-09-08T01:07:21;15.50;99.90
1806;DHT22;901;48.142;11.516;2023-09-08T01:09:49;15.50;99.90
1806;DHT22;901;48.142;11.516;2023-09-08T01:12:16;15.50;99.90
1806;DHT22;901;48.142;11.516;2023-09-08T01:14:43;15.40;99.90
1806;DHT22;901;48.142;11.516;2023-09-08T01:17:10;15.40;99.90
1806;DHT22;901;48.142;11.516;2023-09-08T01:19:38;15.40;99.90
1806;DHT22;901;48.142;11.516;2023-09-08T01:22:30;15.30;99.90
1806;DHT22;901;48.142;11.516;2023-09-08T01:25:12;15.30;99.90
1806;DHT22;901;48.142;11.516;2023-09-08T01:27:46;15.30;99.90
1806;DHT22;901;48.142;11.516;2023-09-08T01:30:14;15.20;99.90
1806;DHT22;901;48.142;11.516;2023-09-08T01:32:43;15.20;99.90
1806;DHT22;901;48.142;11.516;2023-09-08T01:35:11;15.20;99.90
1806;DHT22;901;48.142;11.516;2023-09-08T01:37:40;15.10;99.90
1806;DHT22;901;48.142;11.516;2023-09-08T01:40:10;15.10;99.90
1806;DHT22;901;48.142;11.516;2023-09-08T01:42:38;15.10;99.90
1806;DHT22;901;48.142;11.516;2023-09-08T01:45:06;15.00;99.90
1806;DHT22;901;48.142;11.516;2023-09-08T01:47:33;15.00;99.90
1806;DHT22;901;48.142;11.516;2023-09-08T01:50:01;15.00;99.90
1806;DHT22;901;48.142;11.516;2023-09-08T01:52:28;15.00;99.90
1806;DHT22;901;48.142;11.516;2023-09-08T01:54:54;14.90;99.90
1806;DHT22;901;48.142;11.516;2023-09-08T01:57:23;14.90;99.90
1806;DHT22;901;48.142;11.516;2023-09-08T01:59:50;14.90;99.90
1806;DHT22;901;48.142;11.516;2023-09-08T02:02:16;14.90;99.90
1806;DHT22;901;48.142;11.516;2023-09-08T02:04:43;14.80;99.90
1806;DHT22;901;48.142;11.516;2023-09-08T02:07:10;14.80;99.90
1806;DHT22;901;48.142;11.516;2023-09-08T02:09:38;14.80;99.90
1806;DHT22;901;48.142;11.516;2023-09-08T02:12:05;14.80;99.90
1806;DHT22;901;48.142;11.516;2023-09-08T02:14:33;14.80;99.90
1806;DHT22;901;48.142;11.516;2023-09-08T02:17:00;14.80;99.90
1806;DHT22;901;48.142;11.516;2023-09-08T02:19:27;14.70;99.90
1806;DHT22;901;48.142;11.516;2023-09-08T02:21:54;14.70;99.90
1806;DHT22;901;48.142;11.516;2023-09-08T02:24:21;14.70;99.90
1806;DHT22;901;48.142;11.516;2023-09-08T02:26:48;14.60;99.90
1806;DHT22;901;48.142;11.516;2023-09-08T02:29:15;14.60;99.90
1806;DHT22;901;48.142;11.516;2023-09-08T02:31:44;14.60;99.90
1806;DHT22;901;48.142;11.516;2023-09-08T02:34:11;14.50;99.90
1806;DHT22;901;48.142;11.516;2023-09-08T02:36:38;14.50;99.90
1806;DHT22;901;48.142;11.516;2023-09-08T02:39:05;14.50;99.90
1806;DHT22;901;48.142;11.516;2023-09-08T02:41:32;14.50;99.90
1806;DHT22;901;48.142;11.516;2023-09-08T02:43:59;14.50;99.90
1806;DHT22;901;48.142;11.516;2023-09-08T02:46:26;14.40;99.90
1806;DHT22;901;48.142;11.516;2023-09-08T02:48:54;14.40;99.90
1806;DHT22;901;48.142;11.516;2023-09-08T02:51:21;14.40;99.90
1806;DHT22;901;48.142;11.516;2023-09-08T02:53:48;14.40;99.90
1806;DHT22;901;48.142;11.516;2023-09-08T02:56:15;14.30;99.90
1806;DHT22;901;48.142;11.516;2023-09-08T02:58:41;14.30;99.90
1806;DHT22;901;48.142;11.516;2023-09-08T03:01:10;14.30;99.90
1806;DHT22;901;48.142;11.516;2023-09-08T03:03:39;14.30;99.90
1806;DHT22;901;48.142;11.516;2023-09-08T03:06:07;14.30;99.90
1806;DHT22;901;48.142;11.516;2023-09-08T03:08:34;14.20;99.90
1806;DHT22;901;48.142;11.516;2023-09-08T03:11:02;14.30;99.90
1806;DHT22;901;48.142;11.516;2023-09-08T03:13:29;14.20;99.90
1806;DHT22;901;48.142;11.516;2023-09-08T03:15:56;14.20;99.90
1806;DHT22;901;48.142;11.516;2023-09-08T03:18:23;14.20;99.90
1806;DHT22;901;48.142;11.516;2023-09-08T03:20:50;14.20;99.90
1806;DHT22;901;48.142;11.516;2023-09-08T03:23:19;14.20;99.90
1806;DHT22;901;48.142;11.516;2023-09-08T03:25:46;14.20;99.90
1806;DHT22;901;48.142;11.516;2023-09-08T03:28:14;14.20;99.90
1806;DHT22;901;48.142;11.516;2023-09-08T03:30:41;14.20;99.90
1806;DHT22;901;48.142;11.516;2023-09-08T03:33:08;14.10;99.90
1806;DHT22;901;48.142;11.516;2023-09-08T03:35:35;14.10;99.90
1806;DHT22;901;48.142;11.516;2023-09-08T03:38:02;14.20;99.90
1806;DHT22;901;48.142;11.516;2023-09-08T03:40:30;14.10;99.90
1806;DHT22;901;48.142;11.516;2023-09-08T03:42:57;14.10;99.90
1806;DHT22;901;48.142;11.516;2023-09-08T03:45:23;14.00;99.90
1806;DHT22;901;48.142;11.516;2023-09-08T03:47:50;14.00;99.90
1806;DHT22;901;48.142;11.516;2023-09-08T03:50:17;14.00;99.90
1806;DHT22;901;48.142;11.516;2023-09-08T03:52:44;14.00;99.90
1806;DHT22;901;48.142;11.516;2023-09-08T03:55:11;14.00;99.90
1806;DHT22;901;48.142;11.516;2023-09-08T03:57:39;13.90;99.90
1806;DHT22;901;48.142;11.516;2023-09-08T04:00:07;14.00;99.90
1806;DHT22;901;48.142;11.516;2023-09-08T04:02:35;13.90;99.90
1806;DHT22;901;48.142;11.516;2023-09-08T04:05:03;13.90;99.90
1806;DHT22;901;48.142;11.516;2023-09-08T04:07:30;13.90;99.90
1806;DHT22;901;48.142;11.516;2023-09-08T04:09:57;13.90;99.90
1806;DHT22;901;48.142;11.516;2023-09-08T04:12:24;13.80;99.90
1806;DHT22;901;48.142;11.516;2023-09-08T04:14:52;13.80;99.90
1806;DHT22;901;48.142;11.516;2023-09-08T04:17:19;13.80;99.90
1806;DHT22;901;48.142;11.516;2023-09-08T04:19:46;13.80;99.90
1806;DHT22;901;48.142;11.516;2023-09-08T04:22:12;13.80;99.90
1806;DHT22;901;48.142;11.516;2023-09-08T04:24:39;13.70;99.90
1806;DHT22;901;48.142;11.516;2023-09-08T04:27:06;13.70;99.90
1806;DHT22;901;48.142;11.516;2023-09-08T04:29:34;13.70;99.90
1806;DHT22;901;48.142;11.516;2023-09-08T04:32:03;13.70;99.90
1806;DHT22;901;48.142;11.516;2023-09-08T04:34:35;13.70;99.90
1806;DHT22;901;48.142;11.516;2023-09-08T04:37:02;13.70;99.90
1806;DHT22;901;48.142;11.516;2023-09-08T04:39:29;13.70;99.90
1806;DHT22;901;48.142;11.516;2023-09-08T04:41:56;13.70;99.90
1806;DHT22;901;48.142;11.516;2023-09-08T04:44:23;13.70;99.90
1806;DHT22;901;48.142;11.516;2023-09-08T04:46:50;13.70;99.90
1806;DHT22;901;48.142;11.516;2023-09-08T04:49:18;13.70;99.90
1806;DHT22;901;48.142;11.516;2023-09-08T04:51:45;13.80;99.90
1806;DHT22;901;48.142;11.516;2023-09-08T04:54:12;13.80;99.90
1806;DHT22;901;48.142;11.516;2023-09-08T04:56:39;13.90;99.90
1806;DHT22;901;48.142;11.516;2023-09-08T04:59:06;14.00;99.90
1806;DHT22;901;48.142;11.516;2023-09-08T05:01:33;14.10;99.90
1806;DHT22;901;48.142;11.516;2023-09-08T05:04:03;14.20;99.90
1806;DHT22;901;48.142;11.516;2023-09-08T05:06:31;14.20;99.90
1806;DHT22;901;48.142;11.516;2023-09-08T05:08:58;14.40;99.90
1806;DHT22;901;48.142;11.516;2023-09-08T05:11:26;14.50;99.90
1806;DHT22;901;48.142;11.516;2023-09-08T05:13:53;14.70;99.90
1806;DHT22;901;48.142;11.516;2023-09-08T05:16:20;14.80;99.90
1806;DHT22;901;48.142;11.516;2023-09-08T05:19:01;15.00;99.90
1806;DHT22;901;48.142;11.516;2023-09-08T05:21:28;15.20;99.90
1806;DHT22;901;48.142;11.516;2023-09-08T05:23:57;15.30;99.90
1806;DHT22;901;48.142;11.516;2023-09-08T05:26:23;15.50;99.90
1806;DHT22;901;48.142;11.516;2023-09-08T05:28:50;15.70;99.90
1806;DHT22;901;48.142;11.516;2023-09-08T05:31:17;15.90;99.90
1806;DHT22;901;48.142;11.516;2023-09-08T05:33:44;16.00;99.90
1806;DHT22;901;48.142;11.516;2023-09-08T05:36:11;16.20;99.90
1806;DHT22;901;48.142;11.516;2023-09-08T05:38:38;16.40;99.90
1806;DHT22;901;48.142;11.516;2023-09-08T05:41:06;16.60;99.90
1806;DHT22;901;48.142;11.516;2023-09-08T05:43:33;16.70;99.90
1806;DHT22;901;48.142;11.516;2023-09-08T05:45:59;16.80;99.90
1806;DHT22;901;48.142;11.516;2023-09-08T05:48:26;17.00;99.90
1806;DHT22;901;48.142;11.516;2023-09-08T05:50:53;17.10;99.90
1806;DHT22;901;48.142;11.516;2023-09-08T05:53:20;17.20;99.90
1806;DHT22;901;48.142;11.516;2023-09-08T05:55:47;17.30;99.90
1806;DHT22;901;48.142;11.516;2023-09-08T05:58:15;17.40;99.90
1806;DHT22;901;48.142;11.516;2023-09-08T06:00:42;17.40;99.90
1806;DHT22;901;48.142;11.516;2023-09-08T06:03:09;17.40;99.90
1806;DHT22;901;48.142;11.516;2023-09-08T06:05:36;17.30;99.90
1806;DHT22;901;48.142;11.516;2023-09-08T06:08:03;17.30;99.90
1806;DHT22;901;48.142;11.516;2023-09-08T06:10:30;17.30;99.90
1806;DHT22;901;48.142;11.516;2023-09-08T06:12:57;17.30;99.90
1806;DHT22;901;48.142;11.516;2023-09-08T06:15:25;17.30;99.90
1806;DHT22;901;48.142;11.516;2023-09-08T06:17:52;17.30;99.90
1806;DHT22;901;48.142;11.516;2023-09-08T06:20:19;17.40;99.90
1806;DHT22;901;48.142;11.516;2023-09-08T06:22:46;17.40;99.90
1806;DHT22;901;48.142;11.516;2023-09-08T06:25:13;17.40;99.90
1806;DHT22;901;48.142;11.516;2023-09-08T06:27:40;17.50;99.90
1806;DHT22;901;48.142;11.516;2023-09-08T06:30:08;17.50;99.90
1806;DHT22;901;48.142;11.516;2023-09-08T06:32:37;17.60;99.90
1806;DHT22;901;48.142;11.516;2023-09-08T06:35:04;17.70;99.90
1806;DHT22;901;48.142;11.516;2023-09-08T06:37:35;17.70;99.90
1806;DHT22;901;48.142;11.516;2023-09-08T06:40:04;17.70;99.90
1806;DHT22;901;48.142;11.516;2023-09-08T06:42:31;17.80;99.90
1806;DHT22;901;48.142;11.516;2023-09-08T06:44:59;17.80;99.90
1806;DHT22;901;48.142;11.516;2023-09-08T06:47:26;17.90;99.90
1806;DHT22;901;48.142;11.516;2023-09-08T06:49:55;18.00;99.90
1806;DHT22;901;48.142;11.516;2023-09-08T06:52:22;18.20;99.90
1806;DHT22;901;48.142;11.516;2023-09-08T06:54:49;18.30;99.90
1806;DHT22;901;48.142;11.516;2023-09-08T06:57:18;18.30;99.90
1806;DHT22;901;48.142;11.516;2023-09-08T06:59:46;18.30;99.90
1806;DHT22;901;48.142;11.516;2023-09-08T07:02:14;18.40;99.90
1806;DHT22;901;48.142;11.516;2023-09-08T07:04:41;18.50;99.90
1806;DHT22;901;48.142;11.516;2023-09-08T07:07:09;18.50;99.90
1806;DHT22;901;48.142;11.516;2023-09-08T07:09:36;18.70;99.90
1806;DHT22;901;48.142;11.516;2023-09-08T07:12:04;18.80;99.90
1806;DHT22;901;48.142;11.516;2023-09-08T07:14:32;18.80;99.90
1806;DHT22;901;48.142;11.516;2023-09-08T07:16:58;19.00;99.90
1806;DHT22;901;48.142;11.516;2023-09-08T07:19:26;19.00;99.90
1806;DHT22;901;48.142;11.516;2023-09-08T07:21:53;19.10;99.90
1806;DHT22;901;48.142;11.516;2023-09-08T07:24:21;19.20;99.90
1806;DHT22;901;48.142;11.516;2023-09-08T07:26:48;19.30;99.90
1806;DHT22;901;48.142;11.516;2023-09-08T07:29:14;19.30;99.90
1806;DHT22;901;48.142;11.516;2023-09-08T07:31:41;19.40;99.90
1806;DHT22;901;48.142;11.516;2023-09-08T07:34:08;19.50;99.90
1806;DHT22;901;48.142;11.516;2023-09-08T07:36:36;19.70;99.90
1806;DHT22;901;48.142;11.516;2023-09-08T07:39:04;19.80;99.90
1806;DHT22;901;48.142;11.516;2023-09-08T07:41:32;19.80;99.90
1806;DHT22;901;48.142;11.516;2023-09-08T07:44:00;20.00;99.90
1806;DHT22;901;48.142;11.516;2023-09-08T07:46:27;20.00;99.90
1806;DHT22;901;48.142;11.516;2023-09-08T07:48:54;20.00;99.90
1806;DHT22;901;48.142;11.516;2023-09-08T07:51:21;20.10;99.90
1806;DHT22;901;48.142;11.516;2023-09-08T07:53:48;20.20;99.90
1806;DHT22;901;48.142;11.516;2023-09-08T07:56:16;20.20;99.90
1806;DHT22;901;48.142;11.516;2023-09-08T07:58:44;20.20;99.90
1806;DHT22;901;48.142;11.516;2023-09-08T08:01:12;20.20;99.90
1806;DHT22;901;48.142;11.516;2023-09-08T08:03:40;20.30;99.90
1806;DHT22;901;48.142;11.516;2023-09-08T08:06:07;20.50;99.90
1806;DHT22;901;48.142;11.516;2023-09-08T08:08:34;20.60;99.90
1806;DHT22;901;48.142;11.516;2023-09-08T08:11:09;20.80;99.90
1806;DHT22;901;48.142;11.516;2023-09-08T08:13:36;20.90;99.90
1806;DHT22;901;48.142;11.516;2023-09-08T08:16:04;20.90;99.90
1806;DHT22;901;48.142;11.516;2023-09-08T08:18:31;21.00;99.90
1806;DHT22;901;48.142;11.516;2023-09-08T08:20:58;21.00;99.90
1806;DHT22;901;48.142;11.516;2023-09-08T08:23:29;21.00;99.90
1806;DHT22;901;48.142;11.516;2023-09-08T08:25:56;21.10;99.90
1806;DHT22;901;48.142;11.516;2023-09-08T08:28:23;21.20;99.90
1806;DHT22;901;48.142;11.516;2023-09-08T08:30:51;21.30;99.90
1806;DHT22;901;48.142;11.516;2023-09-08T08:33:19;21.40;99.90
1806;DHT22;901;48.142;11.516;2023-09-08T08:35:50;21.50;99.90
1806;DHT22;901;48.142;11.516;2023-09-08T08:38:18;21.50;99.90
1806;DHT22;901;48.142;11.516;2023-09-08T08:40:44;21.50;99.90
1806;DHT22;901;48.142;11.516;2023-09-08T08:43:11;21.60;99.90
1806;DHT22;901;48.142;11.516;2023-09-08T08:45:38;21.70;99.90
1806;DHT22;901;48.142;11.516;2023-09-08T08:48:07;21.80;99.90
1806;DHT22;901;48.142;11.516;2023-09-08T08:50:37;21.90;99.90
1806;DHT22;901;48.142;11.516;2023-09-08T08:53:05;22.00;99.90
1806;DHT22;901;48.142;11.516;2023-09-08T08:55:34;22.10;99.90
1806;DHT22;901;48.142;11.516;2023-09-08T08:58:04;22.20;99.90
1806;DHT22;901;48.142;11.516;2023-09-08T09:00:34;22.30;99.90
1806;DHT22;901;48.142;11.516;2023-09-08T09:03:04;22.40;99.90
1806;DHT22;901;48.142;11.516;2023-09-08T09:05:32;22.50;99.90
1806;DHT22;901;48.142;11.516;2023-09-08T09:08:02;22.50;99.90
1806;DHT22;901;48.142;11.516;2023-09-08T09:10:30;22.60;99.90
1806;DHT22;901;48.142;11.516;2023-09-08T09:12:58;22.70;99.90
1806;DHT22;901;48.142;11.516;2023-09-08T09:15:29;22.70;99.90
1806;DHT22;901;48.142;11.516;2023-09-08T09:18:05;22.80;99.90
1806;DHT22;901;48.142;11.516;2023-09-08T09:20:32;22.90;99.90
1806;DHT22;901;48.142;11.516;2023-09-08T09:23:01;23.00;99.90
1806;DHT22;901;48.142;11.516;2023-09-08T09:25:30;23.10;99.90
1806;DHT22;901;48.142;11.516;2023-09-08T09:27:59;23.20;99.90
1806;DHT22;901;48.142;11.516;2023-09-08T09:30:27;23.40;99.90
1806;DHT22;901;48.142;11.516;2023-09-08T09:33:03;23.60;99.90
1806;DHT22;901;48.142;11.516;2023-09-08T09:35:40;23.70;99.90
1806;DHT22;901;48.142;11.516;2023-09-08T09:38:09;23.80;99.90
1806;DHT22;901;48.142;11.516;2023-09-08T09:40:37;23.90;99.90
1806;DHT22;901;48.142;11.516;2023-09-08T09:43:07;23.90;99.90
1806;DHT22;901;48.142;11.516;2023-09-08T09:45:35;24.00;99.90
1806;DHT22;901;48.142;11.516;2023-09-08T09:48:03;24.00;99.90
1806;DHT22;901;48.142;11.516;2023-09-08T09:50:32;24.00;99.90
1806;DHT22;901;48.142;11.516;2023-09-08T09:53:01;24.10;99.90
1806;DHT22;901;48.142;11.516;2023-09-08T09:55:31;24.10;99.90
1806;DHT22;901;48.142;11.516;2023-09-08T09:57:59;24.20;99.90
1806;DHT22;901;48.142;11.516;2023-09-08T10:00:30;24.30;99.90
1806;DHT22;901;48.142;11.516;2023-09-08T10:02:59;24.40;99.90
1806;DHT22;901;48.142;11.516;2023-09-08T10:05:27;24.40;99.90
1806;DHT22;901;48.142;11.516;2023-09-08T10:07:54;24.50;99.90
1806;DHT22;901;48.142;11.516;2023-09-08T10:10:22;24.60;99.90
1806;DHT22;901;48.142;11.516;2023-09-08T10:12:53;24.70;99.90
1806;DHT22;901;48.142;11.516;2023-09-08T10:15:22;24.80;99.90
1806;DHT22;901;48.142;11.516;2023-09-08T10:17:54;24.90;99.90
1806;DHT22;901;48.142;11.516;2023-09-08T10:20:23;25.00;99.90
1806;DHT22;901;48.142;11.516;2023-09-08T10:22:54;25.10;99.90
1806;DHT22;901;48.142;11.516;2023-09-08T10:25:25;25.20;99.90
1806;DHT22;901;48.142;11.516;2023-09-08T10:27:56;25.30;99.90
1806;DHT22;901;48.142;11.516;2023-09-08T10:30:24;25.40;99.90
1806;DHT22;901;48.142;11.516;2023-09-08T10:32:51;25.50;99.90
1806;DHT22;901;48.142;11.516;2023-09-08T10:35:18;25.50;99.90
1806;DHT22;901;48.142;11.516;2023-09-08T10:37:45;25.40;99.90
1806;DHT22;901;48.142;11.516;2023-09-08T10:40:22;25.50;99.90
1806;DHT22;901;48.142;11.516;2023-09-08T10:42:49;25.50;99.90
1806;DHT22;901;48.142;11.516;2023-09-08T10:45:18;25.70;99.90
1806;DHT22;901;48.142;11.516;2023-09-08T10:47:56;25.70;99.90
1806;DHT22;901;48.142;11.516;2023-09-08T10:50:31;25.70;99.90
1806;DHT22;901;48.142;11.516;2023-09-08T10:53:06;25.80;99.90
1806;DHT22;901;48.142;11.516;2023-09-08T10:55:37;25.80;99.90
1806;DHT22;901;48.142;11.516;2023-09-08T10:58:04;25.90;99.90
1806;DHT22;901;48.142;11.516;2023-09-08T11:00:45;26.00;99.90
1806;DHT22;901;48.142;11.516;2023-09-08T11:03:13;26.10;99.90
1806;DHT22;901;48.142;11.516;2023-09-08T11:05:42;26.20;99.90
1806;DHT22;901;48.142;11.516;2023-09-08T11:08:10;26.20;99.90
1806;DHT22;901;48.142;11.516;2023-09-08T11:10:37;26.20;99.90
1806;DHT22;901;48.142;11.516;2023-09-08T11:13:07;26.20;99.90
1806;DHT22;901;48.142;11.516;2023-09-08T11:15:34;26.30;99.90
1806;DHT22;901;48.142;11.516;2023-09-08T11:18:08;26.40;99.90
1806;DHT22;901;48.142;11.516;2023-09-08T11:20:35;26.40;99.90
1806;DHT22;901;48.142;11.516;2023-09-08T11:23:03;26.40;99.90
1806;DHT22;901;48.142;11.516;2023-09-08T11:25:32;26.50;99.90
1806;DHT22;901;48.142;11.516;2023-09-08T11:28:00;26.60;99.90
1806;DHT22;901;48.142;11.516;2023-09-08T11:30:27;26.60;99.90
1806;DHT22;901;48.142;11.516;2023-09-08T11:32:54;26.50;99.90
1806;DHT22;901;48.142;11.516;2023-09-08T11:35:28;26.50;99.90
1806;DHT22;901;48.142;11.516;2023-09-08T11:37:59;26.60;99.90
1806;DHT22;901;48.142;11.516;2023-09-08T11:40:31;26.70;99.90
1806;DHT22;901;48.142;11.516;2023-09-08T11:43:00;26.70;99.90
1806;DHT22;901;48.142;11.516;2023-09-08T11:45:27;26.80;99.90
1806;DHT22;901;48.142;11.516;2023-09-08T11:47:55;26.90;99.90
1806;DHT22;901;48.142;11.516;2023-09-08T11:50:22;26.90;99.90
1806;DHT22;901;48.142;11.516;2023-09-08T11:52:52;26.90;99.90
1806;DHT22;901;48.142;11.516;2023-09-08T11:55:21;26.90;99.90
1806;DHT22;901;48.142;11.516;2023-09-08T11:57:51;26.90;99.90
1806;DHT22;901;48.142;11.516;2023-09-08T12:00:21;27.00;99.90
1806;DHT22;901;48.142;11.516;2023-09-08T12:02:49;27.00;99.90
1806;DHT22;901;48.142;11.516;2023-09-08T12:05:21;27.10;99.90
1806;DHT22;901;48.142;11.516;2023-09-08T12:07:50;26.90;99.90
1806;DHT22;901;48.142;11.516;2023-09-08T12:10:18;26.90;99.90
1806;DHT22;901;48.142;11.516;2023-09-08T12:12:46;27.00;99.90
1806;DHT22;901;48.142;11.516;2023-09-08T12:15:30;27.10;99.90
1806;DHT22;901;48.142;11.516;2023-09-08T12:17:59;27.10;99.90
1806;DHT22;901;48.142;11.516;2023-09-08T12:20:26;26.90;99.90
1806;DHT22;901;48.142;11.516;2023-09-08T12:22:57;26.80;99.90
1806;DHT22;901;48.142;11.516;2023-09-08T12:25:24;26.80;99.90
1806;DHT22;901;48.142;11.516;2023-09-08T12:27:54;26.90;99.90
1806;DHT22;901;48.142;11.516;2023-09-08T12:30:22;26.90;99.90
1806;DHT22;901;48.142;11.516;2023-09-08T12:32:56;27.00;99.90
1806;DHT22;901;48.142;11.516;2023-09-08T12:35:23;27.10;99.90
1806;DHT22;901;48.142;11.516;2023-09-08T12:37:57;27.20;99.90
1806;DHT22;901;48.142;11.516;2023-09-08T12:40:25;27.20;99.90
1806;DHT22;901;48.142;11.516;2023-09-08T12:42:52;27.20;99.90
1806;DHT22;901;48.142;11.516;2023-09-08T12:45:21;27.10;99.90
1806;DHT22;901;48.142;11.516;2023-09-08T12:47:48;27.10;99.90
1806;DHT22;901;48.142;11.516;2023-09-08T12:50:15;27.10;99.90
1806;DHT22;901;48.142;11.516;2023-09-08T12:52:43;27.10;99.90
1806;DHT22;901;48.142;11.516;2023-09-08T12:55:11;27.10;99.90
1806;DHT22;901;48.142;11.516;2023-09-08T12:57:38;27.20;99.90
1806;DHT22;901;48.142;11.516;2023-09-08T13:00:06;27.30;99.90
1806;DHT22;901;48.142;11.516;2023-09-08T13:02:34;27.40;99.90
1806;DHT22;901;48.142;11.516;2023-09-08T13:05:01;27.40;99.90
1806;DHT22;901;48.142;11.516;2023-09-08T13:07:29;27.50;99.90
1806;DHT22;901;48.142;11.516;2023-09-08T13:09:56;27.50;99.90
1806;DHT22;901;48.142;11.516;2023-09-08T13:12:23;27.40;99.90
1806;DHT22;901;48.142;11.516;2023-09-08T13:14:50;27.40;99.90
1806;DHT22;901;48.142;11.516;2023-09-08T13:17:17;27.50;99.90
1806;DHT22;901;48.142;11.516;2023-09-08T13:19:45;27.50;99.90
1806;DHT22;901;48.142;11.516;2023-09-08T13:22:12;27.60;99.90
1806;DHT22;901;48.142;11.516;2023-09-08T13:24:39;27.60;99.90
1806;DHT22;901;48.142;11.516;2023-09-08T13:27:06;27.70;99.90
1806;DHT22;901;48.142;11.516;2023-09-08T13:29:34;27.60;99.90
1806;DHT22;901;48.142;11.516;2023-09-08T13:32:01;27.70;99.90
1806;DHT22;901;48.142;11.516;2023-09-08T13:34:29;27.70;99.90
1806;DHT22;901;48.142;11.516;2023-09-08T13:36:56;27.70;99.90
1806;DHT22;901;48.142;11.516;2023-09-08T13:39:23;27.70;99.90
1806;DHT22;901;48.142;11.516;2023-09-08T13:41:51;27.70;99.90
1806;DHT22;901;48.142;11.516;2023-09-08T13:44:20;27.70;99.90
1806;DHT22;901;48.142;11.516;2023-09-08T13:46:48;27.70;99.90
1806;DHT22;901;48.142;11.516;2023-09-08T13:49:16;27.80;99.90
1806;DHT22;901;48.142;11.516;2023-09-08T13:51:44;27.90;99.90
1806;DHT22;901;48.142;11.516;2023-09-08T13:54:12;27.90;99.90
1806;DHT22;901;48.142;11.516;2023-09-08T13:56:40;27.80;99.90
1806;DHT22;901;48.142;11.516;2023-09-08T13:59:08;27.80;99.90
1806;DHT22;901;48.142;11.516;2023-09-08T14:01:37;27.70;99.90
1806;DHT22;901;48.142;11.516;2023-09-08T14:04:06;27.70;99.90
1806;DHT22;901;48.142;11.516;2023-09-08T14:06:33;27.70;99.90
1806;DHT22;901;48.142;11.516;2023-09-08T14:09:00;27.70;99.90
1806;DHT22;901;48.142;11.516;2023-09-08T14:11:28;27.70;99.90
1806;DHT22;901;48.142;11.516;2023-09-08T14:13:56;27.60;99.90
1806;DHT22;901;48.142;11.516;2023-09-08T14:16:22;27.60;99.90
1806;DHT22;901;48.142;11.516;2023-09-08T14:18:49;27.60;99.90
1806;DHT22;901;48.142;11.516;2023-09-08T14:21:18;27.60;99.90
1806;DHT22;901;48.142;11.516;2023-09-08T14:23:46;27.60;99.90
1806;DHT22;901;48.142;11.516;2023-09-08T14:26:13;27.60;99.90
1806;DHT22;901;48.142;11.516;2023-09-08T14:28:40;27.50;99.90
1806;DHT22;901;48.142;11.516;2023-09-08T14:31:08;27.50;99.90
1806;DHT22;901;48.142;11.516;2023-09-08T14:33:35;27.50;99.90
1806;DHT22;901;48.142;11.516;2023-09-08T14:36:02;27.50;99.90
1806;DHT22;901;48.142;11.516;2023-09-08T14:38:31;27.60;99.90
1806;DHT22;901;48.142;11.516;2023-09-08T14:40:59;27.60;99.90
1806;DHT22;901;48.142;11.516;2023-09-08T14:43:28;27.70;99.90
1806;DHT22;901;48.142;11.516;2023-09-08T14:45:55;27.80;99.90
1806;DHT22;901;48.142;11.516;2023-09-08T14:48:23;27.80;99.90
1806;DHT22;901;48.142;11.516;2023-09-08T14:50:50;27.70;99.90
1806;DHT22;901;48.142;11.516;2023-09-08T14:53:17;27.70;99.90
1806;DHT22;901;48.142;11.516;2023-09-08T14:55:46;27.70;99.90
1806;DHT22;901;48.142;11.516;2023-09-08T14:58:14;27.70;99.90
1806;DHT22;901;48.142;11.516;2023-09-08T15:00:41;27.70;99.90
1806;DHT22;901;48.142;11.516;2023-09-08T15:03:09;27.80;99.90
1806;DHT22;901;48.142;11.516;2023-09-08T15:05:37;27.80;99.90
1806;DHT22;901;48.142;11.516;2023-09-08T15:08:04;27.80;99.90
1806;DHT22;901;48.142;11.516;2023-09-08T15:10:31;27.80;99.90
1806;DHT22;901;48.142;11.516;2023-09-08T15:12:59;27.70;99.90
1806;DHT22;901;48.142;11.516;2023-09-08T15:15:26;27.70;99.90
1806;DHT22;901;48.142;11.516;2023-09-08T15:17:54;27.70;99.90
1806;DHT22;901;48.142;11.516;2023-09-08T15:20:21;27.70;99.90
1806;DHT22;901;48.142;11.516;2023-09-08T15:22:48;27.70;99.90
1806;DHT22;901;48.142;11.516;2023-09-08T15:25:15;27.70;99.90
1806;DHT22;901;48.142;11.516;2023-09-08T15:27:42;27.70;99.90
1806;DHT22;901;48.142;11.516;2023-09-08T15:30:13;27.70;99.90
1806;DHT22;901;48.142;11.516;2023-09-08T15:32:40;27.70;99.90
1806;DHT22;901;48.142;11.516;2023-09-08T15:35:08;27.70;99.90
1806;DHT22;901;48.142;11.516;2023-09-08T15:37:35;27.70;99.90
1806;DHT22;901;48.142;11.516;2023-09-08T15:40:02;27.70;99.90
1806;DHT22;901;48.142;11.516;2023-09-08T15:42:30;27.70;99.90
1806;DHT22;901;48.142;11.516;2023-09-08T15:44:57;27.80;99.90
1806;DHT22;901;48.142;11.516;2023-09-08T15:47:26;27.70;99.90
1806;DHT22;901;48.142;11.516;2023-09-08T15:49:53;27.60;99.90
1806;DHT22;901;48.142;11.516;2023-09-08T15:52:20;27.60;99.90
1806;DHT22;901;48.142;11.516;2023-09-08T15:54:47;27.50;99.90
1806;DHT22;901;48.142;11.516;2023-09-08T15:57:14;27.40;99.90
1806;DHT22;901;48.142;11.516;2023-09-08T15:59:41;27.40;99.90
1806;DHT22;901;48.142;11.516;2023-09-08T16:02:08;27.40;99.90
1806;DHT22;901;48.142;11.516;2023-09-08T16:04:36;27.30;99.90
1806;DHT22;901;48.142;11.516;2023-09-08T16:07:03;27.30;99.90